createdAt,value
2022-08-09T00:00:07.196Z,9.8
2022-08-09T00:02:08.358Z,6.6
2022-08-09T00:04:33.742Z,9.9
2022-08-09T00:06:19.426Z,14.2
2022-08-09T00:08:31.519Z,6.7
2022-08-09T00:18:20.483Z,8.1
2022-08-09T00:20:50.435Z,16.3
2022-08-09T00:24:44.979Z,10.1
2022-08-09T00:28:52.708Z,10
2022-08-09T00:32:52.623Z,8.6
2022-08-09T00:34:53.759Z,8
2022-08-09T00:36:54.875Z,9.4
2022-08-09T00:41:00.421Z,8.6
2022-08-09T00:44:16.857Z,8.4
2022-08-09T00:49:04.889Z,12.5
2022-08-09T00:51:12.063Z,12.9
2022-08-09T00:53:10.127Z,10.7
2022-08-09T00:55:16.716Z,9.7
2022-08-09T00:57:12.594Z,11.3
2022-08-09T01:01:16.235Z,7.3
2022-08-09T01:03:16.095Z,12.9
2022-08-09T01:05:22.048Z,12.6
2022-08-09T01:07:18.579Z,17
2022-08-09T01:13:31.026Z,14
2022-08-09T01:14:27.620Z,16.7
2022-08-09T01:16:28.844Z,7.5
2022-08-09T01:18:31.370Z,19.9
2022-08-09T01:20:31.349Z,12.1
2022-08-09T01:22:35.767Z,11.2
2022-08-09T01:24:36.881Z,8.9
2022-08-09T01:28:39.278Z,18.8
2022-08-09T01:36:47.319Z,19.1
2022-08-09T01:38:48.549Z,8.6
2022-08-09T01:44:52.295Z,13.9
2022-08-09T01:48:54.755Z,11.3
2022-08-09T02:01:05.544Z,19.5
2022-08-09T02:03:06.729Z,12.2
2022-08-09T02:05:15.923Z,19
2022-08-09T02:07:18.347Z,13
2022-08-09T02:09:13.706Z,19.7
2022-08-09T02:10:15.960Z,18.2
2022-08-09T02:12:18.182Z,16.1
2022-08-09T02:14:25.599Z,16.7
2022-08-09T02:16:19.678Z,15.6
2022-08-09T02:22:31.827Z,20.5
2022-08-09T02:24:27.951Z,15.6
2022-08-09T02:26:30.710Z,19.4
2022-08-09T02:34:41.524Z,12.1
2022-08-09T02:36:42.071Z,16.7
2022-08-09T02:38:41.298Z,18.8
2022-08-09T02:40:42.573Z,14.5
2022-08-09T02:42:43.802Z,14.1
2022-08-09T02:44:45.025Z,12.9
2022-08-09T02:46:52.026Z,13.2
2022-08-09T02:48:51.114Z,13.2
2022-08-09T02:50:56.163Z,13.6
2022-08-09T02:52:55.344Z,17
2022-08-09T02:54:57.169Z,12.3
2022-08-09T02:56:57.025Z,13.4
2022-08-09T02:58:56.970Z,14.2
2022-08-09T03:01:04.367Z,18.7
2022-08-09T03:06:06.252Z,15.3
2022-08-09T03:08:07.494Z,16.4
2022-08-09T03:10:08.713Z,11.8
2022-08-09T03:12:11.270Z,12
2022-08-09T03:14:14.495Z,22.2
2022-08-09T03:16:15.743Z,24
2022-08-09T03:18:16.996Z,11.3
2022-08-09T03:20:18.236Z,19.7
2022-08-09T03:22:25.188Z,16.8
2022-08-09T03:24:42.029Z,14.3
2022-08-09T03:28:26.537Z,15
2022-08-09T03:30:29.719Z,25.9
2022-08-09T03:32:28.980Z,13.3
2022-08-09T03:46:41.007Z,16.3
2022-08-09T03:48:42.915Z,16.7
2022-08-09T03:50:43.519Z,20.8
2022-08-09T03:52:44.779Z,18.5
2022-08-09T03:54:46.021Z,17.7
2022-08-09T03:56:50.570Z,25.2
2022-08-09T03:58:51.807Z,39.6
2022-08-09T04:00:53.125Z,40.2
2022-08-09T04:03:15.395Z,23.2
2022-08-09T04:05:26.630Z,14.9
2022-08-09T04:07:17.792Z,20.6
2022-08-09T04:09:47.883Z,22
2022-08-09T04:13:44.960Z,23.2
2022-08-09T04:15:39.069Z,21.7
2022-08-09T04:17:27.332Z,17.7
2022-08-09T04:19:30.357Z,25
2022-08-09T04:21:29.823Z,30
2022-08-09T04:23:34.345Z,20.7
2022-08-09T04:25:35.573Z,14.5
2022-08-09T04:27:37.869Z,29
2022-08-09T04:29:38.070Z,25.1
2022-08-09T04:31:46.919Z,30.5
2022-08-09T04:33:47.704Z,19.5
2022-08-09T04:35:42.334Z,22.7
2022-08-09T04:37:46.818Z,17.8
2022-08-09T04:39:49.397Z,21.8
2022-08-09T04:49:55.553Z,25.2
2022-08-09T04:51:58.332Z,30.6
2022-08-09T04:53:59.583Z,48.7
2022-08-09T04:56:00.827Z,18.8
2022-08-09T04:57:03.807Z,20.5
2022-08-09T04:59:13.002Z,21.5
2022-08-09T05:01:05.555Z,20.9
2022-08-09T05:03:30.522Z,34.2
2022-08-09T05:11:15.052Z,25.5
2022-08-09T05:13:16.318Z,29.4
2022-08-09T05:15:24.599Z,20.7
2022-08-09T05:18:42.264Z,23.5
2022-08-09T05:19:24.413Z,27.7
2022-08-09T05:21:29.858Z,24.8
2022-08-09T05:23:55.349Z,27.1
2022-08-09T05:25:28.302Z,22.7
2022-08-09T05:27:28.269Z,22.7
2022-08-09T05:29:31.603Z,24
2022-08-09T05:31:44.862Z,24.4
2022-08-09T05:33:35.322Z,21.7
2022-08-09T05:35:46.599Z,22.7
2022-08-09T05:37:44.750Z,31.6
2022-08-09T05:39:43.627Z,22.3
2022-08-09T05:41:40.263Z,32.4
2022-08-09T05:45:53.016Z,22
2022-08-09T05:47:52.387Z,25.1
2022-08-09T05:50:25.298Z,21.9
2022-08-09T05:51:49.743Z,31.3
2022-08-09T05:56:56.689Z,27.1
2022-08-09T06:15:12.280Z,22
2022-08-09T06:19:14.763Z,26.3
2022-08-09T06:21:16.181Z,15.5
2022-08-09T06:23:17.212Z,21.4
2022-08-09T06:31:31.283Z,15.1
2022-08-09T06:33:39.629Z,28.5
2022-08-09T06:35:56.168Z,13.7
2022-08-09T06:37:29.091Z,18.4
2022-08-09T06:39:49.221Z,16.1
2022-08-09T06:42:01.172Z,14.1
2022-08-09T06:43:35.527Z,14.4
2022-08-09T06:46:06.168Z,14.2
2022-08-09T06:47:39.767Z,20.5
2022-08-09T07:00:55.052Z,16.1
2022-08-09T07:00:58.765Z,10.1
2022-08-09T07:08:54.540Z,9.2
2022-08-09T07:10:58.864Z,23.4
2022-08-09T07:12:59.978Z,13.2
2022-08-09T07:15:03.466Z,15
2022-08-09T07:17:02.197Z,12.4
2022-08-09T07:19:03.327Z,11.2
2022-08-09T07:21:04.455Z,12.6
2022-08-09T07:23:19.246Z,6.2
2022-08-09T07:25:10.016Z,13.5
2022-08-09T07:27:33.052Z,9.9
2022-08-09T07:29:13.275Z,8.4
2022-08-09T07:31:13.157Z,13.6
2022-08-09T07:33:14.829Z,7.4
2022-08-09T07:35:15.400Z,10
2022-08-09T07:37:16.513Z,9.3
2022-08-09T07:39:40.482Z,12
2022-08-09T07:41:21.897Z,7.9
2022-08-09T07:43:29.073Z,9.6
2022-08-09T07:45:45.336Z,7.4
2022-08-09T07:47:49.583Z,5.7
2022-08-09T07:50:05.299Z,10.1
2022-08-09T07:52:05.142Z,10
2022-08-09T07:54:06.751Z,3.3
2022-08-09T07:56:03.429Z,5.4
2022-08-09T07:57:55.026Z,4.4
2022-08-09T08:00:03.729Z,4.8
2022-08-09T08:01:57.210Z,7.6
2022-08-09T08:03:58.165Z,6.8
2022-08-09T08:06:02.385Z,3.7
2022-08-09T08:08:59.642Z,5.7
2022-08-09T08:10:08.535Z,2.2
2022-08-09T08:12:24.877Z,4.8
2022-08-09T08:14:06.621Z,2.2
2022-08-09T08:16:09.113Z,3.6
2022-08-09T08:18:09.708Z,3.2
2022-08-09T08:20:13.952Z,2.5
2022-08-09T08:22:14.792Z,5.1
2022-08-09T08:24:16.624Z,2.2
2022-08-09T08:26:16.635Z,3.9
2022-08-09T08:28:18.372Z,7.2
2022-08-09T08:39:27.310Z,2.2
2022-08-09T08:41:51.032Z,1.2
2022-08-09T08:43:29.026Z,4.1
2022-08-09T08:45:37.150Z,1.3
2022-08-09T08:47:33.979Z,3.2
2022-08-09T08:49:46.433Z,4.1
2022-08-09T08:51:41.632Z,4.3
2022-08-09T08:53:36.914Z,1.8
2022-08-09T08:55:37.467Z,3.9
2022-08-09T08:57:38.339Z,5.5
2022-08-09T08:59:44.474Z,2.9
2022-08-09T09:01:45.011Z,4.4
2022-08-09T09:05:58.882Z,7.8
2022-08-09T09:07:45.866Z,2.1
2022-08-09T09:09:58.443Z,3.2
2022-08-09T09:11:47.594Z,1.7
2022-08-09T09:21:55.080Z,1.6
2022-08-09T09:23:58.210Z,5.1
2022-08-09T09:26:03.525Z,0.7
2022-08-09T09:28:05.155Z,2.1
2022-08-09T09:30:12.340Z,1.7
2022-08-09T09:32:06.091Z,5.7
2022-08-09T09:34:03.498Z,3.2
2022-08-09T09:35:07.794Z,1.6
2022-08-09T09:37:06.415Z,1.1
2022-08-09T09:39:07.379Z,1.6
2022-08-09T09:41:10.673Z,2.3
2022-08-09T09:43:13.598Z,1.4
2022-08-09T09:49:14.921Z,2.2
2022-08-09T09:51:25.843Z,2.8
2022-08-09T09:53:16.655Z,1.6
2022-08-09T09:55:28.086Z,0.3
2022-08-09T09:58:02.645Z,1.8
2022-08-09T09:59:25.370Z,2.9
2022-08-09T10:01:31.460Z,7.1
2022-08-09T10:03:24.364Z,0.5
2022-08-09T10:05:26.817Z,4.4
2022-08-09T10:07:26.165Z,0.8
2022-08-09T10:09:27.082Z,2.6
2022-08-09T10:11:53.755Z,0.3
2022-08-09T10:16:09.636Z,1.1
2022-08-09T10:19:34.649Z,0.5
2022-08-09T10:21:35.543Z,3.3
2022-08-09T10:23:36.457Z,1.6
2022-08-09T10:26:06.307Z,2.2
2022-08-09T10:27:56.373Z,6.4
2022-08-09T10:30:43.666Z,0.8
2022-08-09T10:32:45.456Z,2.3
2022-08-09T10:34:46.297Z,6
2022-08-09T10:36:47.183Z,12.4
2022-08-09T10:38:56.873Z,0.8
2022-08-09T10:40:52.257Z,1.6
2022-08-09T10:42:53.385Z,1.8
2022-08-09T10:44:53.981Z,2.2
2022-08-09T10:53:00.783Z,6.5
2022-08-09T10:55:01.687Z,2
2022-08-09T11:03:03.105Z,0.5
2022-08-09T11:03:19.498Z,2.6
2022-08-09T11:11:12.039Z,1.4
2022-08-09T11:13:12.952Z,2.3
2022-08-09T11:15:18.414Z,3.6
2022-08-09T11:17:14.697Z,0.4
2022-08-09T11:19:15.563Z,1.5
2022-08-09T11:21:19.688Z,0.5
2022-08-09T11:23:23.906Z,3.1
2022-08-09T11:25:26.073Z,1.2
2022-08-09T11:28:04.150Z,1.4
2022-08-09T11:30:04.338Z,0.4
2022-08-09T11:31:52.640Z,3.1
2022-08-09T11:33:54.924Z,2
2022-08-09T11:35:55.808Z,0.8
2022-08-09T11:37:56.664Z,3.9
2022-08-09T11:39:57.575Z,1.3
2022-08-09T11:46:00.144Z,2
2022-08-09T11:50:53.578Z,1.4
2022-08-09T11:53:00.699Z,3
2022-08-09T11:54:12.988Z,3
2022-08-09T11:56:07.719Z,1.4
2022-08-09T11:58:08.597Z,3
2022-08-09T12:00:15.757Z,0.3
2022-08-09T12:02:17.022Z,1.8
2022-08-09T12:04:23.595Z,0.4
2022-08-09T12:06:15.281Z,5
2022-08-09T12:08:21.616Z,7.3
2022-08-09T12:10:38.475Z,0.3
2022-08-09T12:12:20.232Z,0.3
2022-08-09T12:14:37.197Z,0.2
2022-08-09T12:16:37.138Z,1.1
2022-08-09T12:18:25.869Z,4.1
2022-08-09T12:20:24.637Z,0.5
2022-08-09T12:21:32.533Z,0.7
2022-08-09T12:23:56.347Z,0.5
2022-08-09T12:25:36.766Z,0.3
2022-08-09T12:29:11.407Z,5.3
2022-08-09T12:29:44.551Z,1.9
2022-08-09T12:31:58.984Z,1.5
2022-08-09T12:33:58.465Z,1.3
2022-08-09T12:35:40.114Z,9.9
2022-08-09T12:37:44.313Z,1.1
2022-08-09T12:39:38.090Z,1.5
2022-08-09T12:41:40.355Z,3.8
2022-08-09T12:44:06.069Z,0.5
2022-08-09T12:45:43.920Z,1
2022-08-09T12:47:50.331Z,2.7
2022-08-09T12:49:52.846Z,0.8
2022-08-09T12:52:00.150Z,1.4
2022-08-09T12:53:52.912Z,0.1
2022-08-09T12:56:14.418Z,1.3
2022-08-09T12:57:52.619Z,1.7
2022-08-09T13:00:03.503Z,2.5
2022-08-09T13:01:54.488Z,1.6
2022-08-09T13:06:14.609Z,2.7
2022-08-09T13:07:57.215Z,3.8
2022-08-09T13:10:01.218Z,2.5
2022-08-09T13:12:02.505Z,0.7
2022-08-09T13:14:40.761Z,1.5
2022-08-09T13:19:08.448Z,8.7
2022-08-09T13:22:36.031Z,0.8
2022-08-09T13:24:17.551Z,2.7
2022-08-09T13:27:13.993Z,0.7
2022-08-09T13:29:15.111Z,0.6
2022-08-09T13:33:17.156Z,2.6
2022-08-09T13:35:17.686Z,1
2022-08-09T13:37:51.349Z,1
2022-08-09T13:41:20.787Z,0.3
2022-08-09T13:41:59.483Z,2.5
2022-08-09T13:43:35.910Z,0.3
2022-08-09T13:45:32.585Z,0.2
2022-08-09T13:47:43.601Z,1
2022-08-09T13:49:33.951Z,0.7
2022-08-09T13:53:42.917Z,1.3
2022-08-09T13:55:33.425Z,0.8
2022-08-09T13:57:37.541Z,0.7
2022-08-09T13:59:41.574Z,0.3
2022-08-09T14:01:56.746Z,1.6
2022-08-09T14:04:02.877Z,1.2
2022-08-09T14:05:56.478Z,0.4
2022-08-09T14:07:43.646Z,3.3
2022-08-09T14:09:44.598Z,0.6
2022-08-09T14:11:47.789Z,0.7
2022-08-09T14:12:47.596Z,1.3
2022-08-09T14:14:53.667Z,0.4
2022-08-09T14:16:49.440Z,1
2022-08-09T14:18:51.717Z,0.4
2022-08-09T14:20:54.560Z,2.1
2022-08-09T14:22:55.454Z,0.8
2022-08-09T14:24:56.371Z,0.4
2022-08-09T14:26:57.306Z,2.8
2022-08-09T14:28:58.216Z,6.5
2022-08-09T14:30:59.167Z,1
2022-08-09T14:33:00.102Z,8.5
2022-08-09T14:35:04.241Z,0.6
2022-08-09T14:43:07.966Z,0.4
2022-08-09T14:46:40.226Z,0.9
2022-08-09T14:47:26.272Z,0.4
2022-08-09T14:49:13.975Z,6.2
2022-08-09T14:51:14.916Z,1.5
2022-08-09T14:53:15.839Z,10.3
2022-08-09T14:55:19.883Z,1.2
2022-08-09T14:57:17.700Z,1.3
2022-08-09T14:59:18.633Z,0.4
2022-08-09T15:01:19.910Z,4.7
2022-08-09T15:03:23.739Z,2
2022-08-09T15:05:24.645Z,8.1
2022-08-09T15:07:25.573Z,2
2022-08-09T15:10:07.710Z,0.5
2022-08-09T15:11:54.214Z,0.4
2022-08-09T15:13:59.775Z,1.5
2022-08-09T15:15:59.315Z,3.5
2022-08-09T15:18:00.327Z,0.3
2022-08-09T15:20:02.789Z,0.3
2022-08-09T15:24:11.511Z,0.3
2022-08-09T15:26:04.964Z,0.6
2022-08-09T15:28:04.892Z,0.5
2022-08-09T15:30:57.324Z,0.9
2022-08-09T15:32:29.862Z,3.3
2022-08-09T15:34:33.506Z,0.5
2022-08-09T15:36:11.802Z,3.4
2022-08-09T15:38:12.740Z,3.3
2022-08-09T15:40:13.895Z,1.5
2022-08-09T15:42:14.931Z,0.7
2022-08-09T15:46:33.248Z,0.6
2022-08-09T15:50:21.510Z,0.4
2022-08-09T15:52:22.451Z,0.4
2022-08-09T15:58:28.450Z,2
2022-08-09T16:00:29.356Z,0.7
2022-08-09T16:02:30.288Z,0.3
2022-08-09T16:03:38.558Z,0.5
2022-08-09T16:05:47.672Z,1.3
2022-08-09T16:07:38.799Z,2
2022-08-09T16:09:51.462Z,1.9
2022-08-09T16:11:40.687Z,0.6
2022-08-09T16:14:04.304Z,0.6
2022-08-09T16:16:10.541Z,10.5
2022-08-09T16:19:49.297Z,0.8
2022-08-09T16:21:48.765Z,3
2022-08-09T16:23:50.898Z,0.7
2022-08-09T16:25:49.827Z,0.4
2022-08-09T16:27:51.397Z,0.4
2022-08-09T16:29:53.503Z,4.8
2022-08-09T16:32:19.712Z,0.6
2022-08-09T16:33:52.753Z,1.5
2022-08-09T16:35:58.162Z,1.4
2022-08-09T16:37:56.855Z,0.5
2022-08-09T16:40:04.678Z,0.8
2022-08-09T16:42:03.239Z,0.8
2022-08-09T16:44:00.639Z,1.4
2022-08-09T16:46:01.644Z,2.1
2022-08-09T16:48:40.063Z,0.3
2022-08-09T16:50:32.039Z,0.9
2022-08-09T16:52:04.377Z,0.7
2022-08-09T16:54:25.635Z,0.6
2022-08-09T16:56:10.656Z,1.7
2022-08-09T16:58:11.495Z,6.6
2022-08-09T16:59:12.504Z,1.8
2022-08-09T17:08:43.133Z,0.6
2022-08-09T17:09:45.340Z,0.5
2022-08-09T17:11:24.661Z,7.4
2022-08-09T17:13:22.808Z,5.8
2022-08-09T17:15:58.586Z,1.6
2022-08-09T17:17:27.529Z,1.6
2022-08-09T17:19:25.166Z,3.8
2022-08-09T17:21:29.349Z,11.6
2022-08-09T17:24:21.252Z,1.5
2022-08-09T17:25:31.223Z,0.9
2022-08-09T17:33:36.053Z,0.4
2022-08-09T17:35:41.134Z,4.8
2022-08-09T17:38:07.647Z,1
2022-08-09T17:39:52.651Z,0.8
2022-08-09T17:41:42.095Z,5.9
2022-08-09T17:43:50.620Z,0.8
2022-08-09T17:46:02.108Z,1
2022-08-09T17:47:49.889Z,5.1
2022-08-09T17:49:50.816Z,1.6
2022-08-09T17:51:50.096Z,0.3
2022-08-09T17:53:53.318Z,0.5
2022-08-09T18:00:56.339Z,1.7
2022-08-09T18:03:00.337Z,0.6
2022-08-09T18:05:01.197Z,0.6
2022-08-09T18:07:04.693Z,1.2
2022-08-09T18:09:03.641Z,2.3
2022-08-09T18:13:39.663Z,1
2022-08-09T18:15:06.032Z,0.9
2022-08-09T18:21:00.903Z,4.1
2022-08-09T18:21:18.944Z,0.3
2022-08-09T18:23:14.169Z,0.7
2022-08-09T18:25:14.139Z,0.6
2022-08-09T18:27:18.854Z,0.4
2022-08-09T18:30:42.019Z,0.4
2022-08-09T18:31:25.068Z,4.6
2022-08-09T18:33:23.246Z,0.2
2022-08-09T18:35:59.520Z,8.8
2022-08-09T18:37:47.612Z,5.7
2022-08-09T18:39:24.301Z,8.6
2022-08-09T18:41:27.614Z,1.3
2022-08-09T18:43:26.202Z,2.6
2022-08-09T18:46:48.426Z,0.8
2022-08-09T18:47:37.327Z,3.4
2022-08-09T18:49:43.551Z,0.5
2022-08-09T18:52:00.222Z,0.7
2022-08-09T18:54:07.535Z,0.9
2022-08-09T18:56:05.453Z,0.8
2022-08-09T18:58:06.428Z,0.8
2022-08-09T19:00:07.572Z,0.8
2022-08-09T19:02:08.506Z,0.6
2022-08-09T19:04:09.442Z,1.4
2022-08-09T19:06:14.816Z,1.1
2022-08-09T19:08:14.051Z,3.4
2022-08-09T19:10:13.927Z,2.5
2022-08-09T19:12:16.669Z,0.4
2022-08-09T19:14:29.123Z,1.2
2022-08-09T19:16:21.182Z,2.6
2022-08-09T19:18:33.755Z,1.1
2022-08-09T19:20:20.719Z,1
2022-08-09T19:22:21.740Z,3.6
2022-08-09T19:24:31.572Z,1.4
2022-08-09T19:26:29.465Z,5.3
2022-08-09T19:28:28.649Z,6.4
2022-08-09T19:30:29.043Z,0.4
2022-08-09T19:32:31.584Z,0.9
2022-08-09T19:34:31.096Z,6.3
2022-08-09T19:36:32.822Z,0.4
2022-08-09T19:38:33.115Z,15.4
2022-08-09T19:40:37.425Z,0.8
2022-08-09T19:42:38.887Z,1
2022-08-09T19:44:39.403Z,0.6
2022-08-09T19:47:42.554Z,1.8
2022-08-09T19:50:07.374Z,4.5
2022-08-09T19:51:54.947Z,4.3
2022-08-09T19:53:50.349Z,0.9
2022-08-09T19:56:01.967Z,0.8
2022-08-09T19:57:52.411Z,2.9
2022-08-09T19:59:59.952Z,1.9
2022-08-09T20:02:04.744Z,3.6
2022-08-09T20:04:12.490Z,11.1
2022-08-09T20:05:56.598Z,2.3
2022-08-09T20:08:05.961Z,0.7
2022-08-09T20:10:06.781Z,6.6
2022-08-09T20:12:02.856Z,0.6
2022-08-09T20:14:03.879Z,0.4
2022-08-09T20:16:35.699Z,3.7
2022-08-09T20:18:08.276Z,1.5
2022-08-09T20:20:07.002Z,4.5
2022-08-09T20:22:14.482Z,6.4
2022-08-09T20:24:12.301Z,2.6
2022-08-09T20:26:15.545Z,2.2
2022-08-09T20:28:24.310Z,8.6
2022-08-09T20:30:09.658Z,4.5
2022-08-09T20:32:30.442Z,1.2
2022-08-09T20:34:11.741Z,1.5
2022-08-09T20:38:22.477Z,1.2
2022-08-09T20:40:26.296Z,4.3
2022-08-09T20:41:20.246Z,1.6
2022-08-09T20:43:24.278Z,5.5
2022-08-09T20:46:00.650Z,0.6
2022-08-09T20:47:45.319Z,2
2022-08-09T20:49:28.613Z,1.3
2022-08-09T20:51:28.673Z,1.8
2022-08-09T20:53:37.542Z,0.5
2022-08-09T20:55:47.537Z,1
2022-08-09T20:57:32.090Z,1.2
2022-08-09T21:00:20.569Z,1.9
2022-08-09T21:01:50.696Z,1
2022-08-09T21:03:39.451Z,2.6
2022-08-09T21:05:53.880Z,1.6
2022-08-09T21:07:44.315Z,1.2
2022-08-09T21:09:45.261Z,1.7
2022-08-09T21:13:57.978Z,1.1
2022-08-09T21:15:51.989Z,0.8
2022-08-09T21:18:11.756Z,0.8
2022-08-09T21:20:08.363Z,1.1
2022-08-09T21:21:56.542Z,1.9
2022-08-09T21:23:53.855Z,2.2
2022-08-09T21:25:55.273Z,1.3
2022-08-09T21:27:54.366Z,6.7
2022-08-09T21:29:55.451Z,11.7
2022-08-09T21:36:01.926Z,6.2
2022-08-09T21:37:04.020Z,1.4
2022-08-09T21:39:05.118Z,0.9
2022-08-09T21:41:08.437Z,2.1
2022-08-09T21:43:07.302Z,4.4
2022-08-09T21:45:17.447Z,1
2022-08-09T21:47:17.672Z,13.4
2022-08-09T21:55:17.035Z,1.2
2022-08-09T21:59:23.157Z,0.9
2022-08-09T22:01:44.948Z,0.8
2022-08-09T22:03:25.535Z,4.9
2022-08-09T22:07:40.014Z,1.6
2022-08-09T22:09:27.963Z,1.5
2022-08-09T22:13:34.482Z,4
2022-08-09T22:17:35.822Z,2.3
2022-08-09T22:19:58.324Z,2.2
2022-08-09T22:23:59.858Z,1
2022-08-09T22:26:08.246Z,4.6
2022-08-09T22:27:44.249Z,2.4
2022-08-09T22:29:46.446Z,20.2
2022-08-09T22:31:56.686Z,1.2
2022-08-09T22:36:19.465Z,4.1
2022-08-09T22:42:23.638Z,2.4
2022-08-09T22:44:23.222Z,1
2022-08-09T22:48:14.550Z,1.7
2022-08-09T22:48:34.183Z,1.5
2022-08-09T22:50:26.540Z,1.6
2022-08-09T22:52:27.666Z,1.4
2022-08-09T22:54:31.947Z,2.8
2022-08-09T22:56:34.378Z,8.9
2022-08-09T22:58:34.175Z,1.3
2022-08-09T23:00:35.302Z,2.5
2022-08-09T23:02:36.453Z,11.5
2022-08-09T23:04:38.360Z,6.9
2022-08-09T23:06:38.680Z,2.4
2022-08-09T23:08:42.980Z,1.4
2022-08-09T23:10:44.141Z,2.1
2022-08-09T23:12:45.213Z,2.8
2022-08-09T23:14:46.358Z,1.7
2022-08-09T23:16:47.472Z,4.6
2022-08-09T23:20:49.716Z,1.6
2022-08-09T23:22:54.008Z,1.8
2022-08-09T23:24:55.135Z,1.4
2022-08-09T23:28:15.063Z,1.9
2022-08-09T23:29:59.527Z,1.8
2022-08-09T23:32:00.649Z,4.7
2022-08-09T23:34:02.609Z,3.2
2022-08-09T23:36:07.413Z,5.3
2022-08-09T23:38:07.206Z,1.4
2022-08-09T23:40:08.329Z,2.9
2022-08-09T23:42:09.460Z,6.2
2022-08-09T23:48:12.832Z,2.5
2022-08-09T23:56:52.480Z,1.4
2022-08-09T23:58:26.033Z,1.8
